createdAt,value
2023-04-10T00:01:12.645Z,100793.70
2023-04-10T00:04:00.963Z,100791.61
2023-04-10T00:06:34.857Z,100795.77
2023-04-10T00:09:02.870Z,100793.48
2023-04-10T00:11:31.030Z,100796.10
2023-04-10T00:14:01.439Z,100795.79
2023-04-10T00:16:32.326Z,100799.94
2023-04-10T00:19:01.934Z,100799.96
2023-04-10T00:21:41.676Z,100801.95
2023-04-10T00:24:09.858Z,100798.05
2023-04-10T00:26:38.829Z,100798.34
2023-04-10T00:29:06.836Z,100797.04
2023-04-10T00:31:50.026Z,100795.61
2023-04-10T00:34:18.169Z,100795.10
2023-04-10T00:36:48.006Z,100794.98
2023-04-10T00:39:15.920Z,100794.19
2023-04-10T00:41:48.970Z,100794.80
2023-04-10T00:44:17.682Z,100797.19
2023-04-10T00:46:45.894Z,100793.56
2023-04-10T00:49:14.705Z,100792.92
2023-04-10T00:51:43.774Z,100790.35
2023-04-10T00:54:16.974Z,100789.80
2023-04-10T00:56:47.158Z,100789.38
2023-04-10T00:59:15.018Z,100786.45
2023-04-10T01:01:44.730Z,100784.53
2023-04-10T01:04:14.141Z,100783.98
2023-04-10T01:06:51.890Z,100785.91
2023-04-10T01:09:48.453Z,100782.96
2023-04-10T01:12:44.005Z,100782.30
2023-04-10T01:15:14.041Z,100784.79
2023-04-10T01:17:56.420Z,100784.40
2023-04-10T01:20:26.306Z,100786.75
2023-04-10T01:23:21.997Z,100785.60
2023-04-10T01:26:23.958Z,100790.55
2023-04-10T01:29:01.731Z,100790.70
2023-04-10T01:31:43.105Z,100786.67
2023-04-10T01:34:20.121Z,100790.27
2023-04-10T01:36:55.472Z,100787.05
2023-04-10T01:39:23.340Z,100783.27
2023-04-10T01:41:52.863Z,100784.20
2023-04-10T01:44:26.204Z,100785.75
2023-04-10T01:46:56.008Z,100786.32
2023-04-10T01:49:28.394Z,100783.58
2023-04-10T01:52:03.564Z,100784.05
2023-04-10T01:54:32.090Z,100784.23
2023-04-10T01:57:00.602Z,100783.99
2023-04-10T01:59:29.619Z,100780.35
2023-04-10T02:02:01.413Z,100782.58
2023-04-10T02:04:30.592Z,100784.55
2023-04-10T02:07:27.128Z,100784.48
2023-04-10T02:10:10.830Z,100782.27
2023-04-10T02:12:57.152Z,100787.46
2023-04-10T02:15:30.917Z,100787.30
2023-04-10T02:17:59.801Z,100785.61
2023-04-10T02:20:27.682Z,100787.65
2023-04-10T02:22:59.691Z,100786.70
2023-04-10T02:25:27.710Z,100785.81
2023-04-10T02:27:55.561Z,100786.23
2023-04-10T02:30:24.885Z,100786.56
2023-04-10T02:32:53.770Z,100789.08
2023-04-10T02:35:22.263Z,100787.14
2023-04-10T02:37:50.772Z,100788.95
2023-04-10T02:40:19.292Z,100789.15
2023-04-10T02:42:54.411Z,100789.24
2023-04-10T02:45:22.989Z,100792.01
2023-04-10T02:47:51.103Z,100790.42
2023-04-10T02:50:20.994Z,100793.88
2023-04-10T02:52:49.025Z,100794.52
2023-04-10T02:55:17.874Z,100798.27
2023-04-10T02:57:46.424Z,100794.04
2023-04-10T03:00:15.654Z,100792.66
2023-04-10T03:03:10.711Z,100792.14
2023-04-10T03:05:49.580Z,100795.08
2023-04-10T03:08:19.382Z,100795.26
2023-04-10T03:10:50.535Z,100795.26
2023-04-10T03:13:20.491Z,100794.89
2023-04-10T03:15:48.556Z,100799.53
2023-04-10T03:18:16.706Z,100798.85
2023-04-10T03:20:48.635Z,100803.59
2023-04-10T03:23:17.071Z,100805.43
2023-04-10T03:25:45.043Z,100803.60
2023-04-10T03:28:13.169Z,100802.05
2023-04-10T03:30:41.645Z,100799.99
2023-04-10T03:33:10.037Z,100800.36
2023-04-10T03:35:38.075Z,100801.27
2023-04-10T03:38:08.006Z,100802.17
2023-04-10T03:40:37.879Z,100803.51
2023-04-10T03:43:06.325Z,100806.76
2023-04-10T03:45:34.679Z,100805.64
2023-04-10T03:48:04.321Z,100809.53
2023-04-10T03:50:39.886Z,100808.61
2023-04-10T03:53:08.844Z,100805.38
2023-04-10T03:55:38.712Z,100811.64
2023-04-10T03:58:08.347Z,100815.66
2023-04-10T04:00:36.676Z,100814.94
2023-04-10T04:03:24.105Z,100818.64
2023-04-10T04:06:12.700Z,100819.73
2023-04-10T04:08:49.328Z,100823.70
2023-04-10T04:11:38.704Z,100826.33
2023-04-10T04:14:34.472Z,100825.08
2023-04-10T04:17:20.930Z,100829.54
2023-04-10T04:20:06.095Z,100827.86
2023-04-10T04:22:42.886Z,100831.61
2023-04-10T04:25:35.949Z,100834.90
2023-04-10T04:28:23.023Z,100835.83
2023-04-10T04:31:18.868Z,100830.95
2023-04-10T04:34:11.633Z,100836.05
2023-04-10T04:36:43.806Z,100837.30
2023-04-10T04:39:35.551Z,100842.65
2023-04-10T04:42:32.966Z,100838.66
2023-04-10T04:45:21.697Z,100841.57
2023-04-10T04:48:10.857Z,100838.16
2023-04-10T04:50:53.596Z,100843.14
2023-04-10T04:53:41.143Z,100844.69
2023-04-10T04:56:20.797Z,100845.46
2023-04-10T04:59:09.140Z,100849.48
2023-04-10T05:02:06.778Z,100852.75
2023-04-10T05:04:55.444Z,100856.09
2023-04-10T05:07:41.804Z,100855.25
2023-04-10T05:10:17.992Z,100862.11
2023-04-10T05:13:04.547Z,100868.57
2023-04-10T05:15:49.214Z,100870.23
2023-04-10T05:18:46.809Z,100870.23
2023-04-10T05:21:37.627Z,100874.44
2023-04-10T05:24:26.826Z,100870.89
2023-04-10T05:27:15.448Z,100876.16
2023-04-10T05:30:09.021Z,100871.06
2023-04-10T05:32:56.407Z,100870.35
2023-04-10T05:35:56.980Z,100868.70
2023-04-10T05:38:54.286Z,100867.59
2023-04-10T05:41:48.763Z,100868.34
2023-04-10T05:44:30.358Z,100873.02
2023-04-10T05:47:03.523Z,100874.87
2023-04-10T05:49:55.125Z,100876.17
2023-04-10T05:52:43.845Z,100877.80
2023-04-10T05:55:24.039Z,100880.42
2023-04-10T05:57:56.569Z,100884.30
2023-04-10T06:00:37.383Z,100883.67
2023-04-10T06:03:31.882Z,100887.87
2023-04-10T06:06:02.721Z,100891.05
2023-04-10T06:08:32.040Z,100892.65
2023-04-10T06:11:00.730Z,100890.14
2023-04-10T06:13:29.461Z,100894.23
2023-04-10T06:16:19.257Z,100897.77
2023-04-10T06:18:47.916Z,100896.23
2023-04-10T06:21:15.746Z,100901.23
2023-04-10T06:23:44.938Z,100899.95
2023-04-10T06:26:12.792Z,100902.55
2023-04-10T06:28:41.096Z,100903.30
2023-04-10T06:31:09.157Z,100900.30
2023-04-10T06:33:38.015Z,100900.88
2023-04-10T06:36:08.698Z,100899.44
2023-04-10T06:38:42.255Z,100899.24
2023-04-10T06:41:11.644Z,100898.58
2023-04-10T06:43:41.103Z,100902.11
2023-04-10T06:46:09.264Z,100898.67
2023-04-10T06:48:37.200Z,100902.08
2023-04-10T06:51:07.679Z,100901.33
2023-04-10T06:53:35.856Z,100902.95
2023-04-10T06:56:08.222Z,100904.21
2023-04-10T06:58:44.436Z,100910.17
2023-04-10T07:01:12.528Z,100909.93
2023-04-10T07:03:40.438Z,100912.16
2023-04-10T07:06:14.212Z,100910.41
2023-04-10T07:08:55.826Z,100910.09
2023-04-10T07:11:24.248Z,100911.67
2023-04-10T07:14:46.056Z,100911.81
2023-04-10T07:17:14.249Z,100913.36
2023-04-10T07:19:43.162Z,100915.61
2023-04-10T07:22:11.637Z,100918.30
2023-04-10T07:24:41.875Z,100917.91
2023-04-10T07:27:09.693Z,100918.50
2023-04-10T07:29:37.473Z,100921.71
2023-04-10T07:32:06.285Z,100923.14
2023-04-10T07:34:34.573Z,100924.39
2023-04-10T07:37:05.999Z,100923.32
2023-04-10T07:39:34.033Z,100929.31
2023-04-10T07:42:02.065Z,100934.11
2023-04-10T07:44:30.573Z,100938.38
2023-04-10T07:46:59.015Z,100936.64
2023-04-10T07:49:27.253Z,100932.35
2023-04-10T07:51:55.453Z,100937.02
2023-04-10T07:54:23.286Z,100936.27
2023-04-10T07:56:54.880Z,100938.13
2023-04-10T07:59:22.774Z,100938.47
2023-04-10T08:01:51.106Z,100941.39
2023-04-10T08:04:22.099Z,100939.86
2023-04-10T08:06:50.658Z,100939.29
2023-04-10T08:09:18.519Z,100944.28
2023-04-10T08:11:46.998Z,100941.36
2023-04-10T08:14:18.588Z,100940.46
2023-04-10T08:16:52.888Z,100940.83
2023-04-10T08:19:22.568Z,100944.92
2023-04-10T08:21:50.831Z,100945.96
2023-04-10T08:24:22.662Z,100947.34
2023-04-10T08:27:10.384Z,100950.54
2023-04-10T08:29:39.921Z,100946.30
2023-04-10T08:32:08.212Z,100941.75
2023-04-10T08:34:36.092Z,100939.84
2023-04-10T08:37:10.579Z,100939.52
2023-04-10T08:39:40.375Z,100946.88
2023-04-10T08:42:13.108Z,100948.27
2023-04-10T08:44:43.248Z,100946.54
2023-04-10T08:47:11.103Z,100945.52
2023-04-10T08:49:49.288Z,100947.72
2023-04-10T08:52:25.749Z,100944.48
2023-04-10T08:54:56.790Z,100945.61
2023-04-10T08:57:26.870Z,100946.59
2023-04-10T08:59:54.926Z,100943.73
2023-04-10T09:02:26.483Z,100946.41
2023-04-10T09:04:55.501Z,100946.56
2023-04-10T09:07:23.633Z,100947.98
2023-04-10T09:09:52.013Z,100943.98
2023-04-10T09:12:22.499Z,100939.61
2023-04-10T09:14:53.472Z,100944.11
2023-04-10T09:17:29.554Z,100947.45
2023-04-10T09:20:02.322Z,100945.01
2023-04-10T09:22:32.190Z,100944.24
2023-04-10T09:25:08.293Z,100941.39
2023-04-10T09:27:38.556Z,100937.65
2023-04-10T09:30:08.503Z,100938.81
2023-04-10T09:32:41.776Z,100940.13
2023-04-10T09:35:12.392Z,100939.64
2023-04-10T09:37:41.679Z,100936.57
2023-04-10T09:40:27.152Z,100935.44
2023-04-10T09:42:56.914Z,100940.39
2023-04-10T09:45:24.911Z,100937.08
2023-04-10T09:48:07.494Z,100933.09
2023-04-10T09:50:39.539Z,100927.65
2023-04-10T09:53:16.644Z,100927.21
2023-04-10T09:55:48.350Z,100923.56
2023-04-10T09:58:17.037Z,100923.48
2023-04-10T10:00:48.991Z,100927.41
2023-04-10T10:03:21.163Z,100927.79
2023-04-10T10:05:50.426Z,100931.65
2023-04-10T10:08:26.224Z,100924.60
2023-04-10T10:10:57.292Z,100921.58
2023-04-10T10:13:29.416Z,100920.72
2023-04-10T10:16:38.578Z,100922.52
2023-04-10T10:20:02.327Z,100916.95
2023-04-10T10:22:38.898Z,100919.98
2023-04-10T10:25:07.727Z,100921.88
2023-04-10T10:27:37.363Z,100917.84
2023-04-10T10:30:16.415Z,100913.75
2023-04-10T10:32:54.779Z,100914.81
2023-04-10T10:35:24.571Z,100913.12
2023-04-10T10:37:54.872Z,100909.02
2023-04-10T10:40:29.961Z,100906.58
2023-04-10T10:43:05.352Z,100911.65
2023-04-10T10:45:36.655Z,100909.79
2023-04-10T10:48:04.890Z,100908.06
2023-04-10T10:50:56.925Z,100910.06
2023-04-10T10:53:39.077Z,100909.34
2023-04-10T10:56:22.588Z,100904.55
2023-04-10T10:58:56.303Z,100906.01
2023-04-10T11:01:24.591Z,100905.55
2023-04-10T11:03:53.776Z,100899.29
2023-04-10T11:06:22.863Z,100904.41
2023-04-10T11:08:55.369Z,100907.09
2023-04-10T11:11:25.974Z,100906.66
2023-04-10T11:13:57.504Z,100901.36
2023-04-10T11:16:36.662Z,100893.55
2023-04-10T11:22:00.614Z,100887.41
2023-04-10T11:24:30.029Z,100882.20
2023-04-10T11:26:59.120Z,100887.41
2023-04-10T11:29:27.267Z,100887.80
2023-04-10T11:31:58.619Z,100890.67
2023-04-10T11:34:33.616Z,100896.91
2023-04-10T11:37:04.445Z,100894.30
2023-04-10T11:39:33.124Z,100894.46
2023-04-10T11:42:02.016Z,100894.30
2023-04-10T11:44:36.816Z,100891.39
2023-04-10T11:47:05.090Z,100892.88
2023-04-10T11:49:34.380Z,100889.80
2023-04-10T11:52:03.309Z,100892.20
2023-04-10T11:54:32.558Z,100893.56
2023-04-10T11:57:03.967Z,100889.14
2023-04-10T11:59:33.299Z,100894.50
2023-04-10T12:02:09.720Z,100895.06
2023-04-10T12:04:38.465Z,100901.17
2023-04-10T12:07:08.397Z,100902.26
2023-04-10T12:09:36.599Z,100902.17
2023-04-10T12:12:06.719Z,100909.76
2023-04-10T12:14:39.932Z,100908.79
2023-04-10T12:17:09.533Z,100901.82
2023-04-10T12:19:53.228Z,100903.09
2023-04-10T12:22:21.823Z,100898.36
2023-04-10T12:24:53.728Z,100901.98
2023-04-10T12:27:29.068Z,100898.60
2023-04-10T12:29:58.211Z,100896.94
2023-04-10T12:32:29.585Z,100899.66
2023-04-10T12:34:58.635Z,100901.64
2023-04-10T12:37:49.663Z,100898.09
2023-04-10T12:40:18.336Z,100898.34
2023-04-10T12:42:46.418Z,100892.79
2023-04-10T12:45:15.370Z,100891.16
2023-04-10T12:47:48.053Z,100885.58
2023-04-10T12:50:19.263Z,100884.45
2023-04-10T12:53:02.551Z,100883.61
2023-04-10T12:55:31.233Z,100880.59
2023-04-10T12:58:17.338Z,100879.02
2023-04-10T13:00:45.608Z,100886.70
2023-04-10T13:03:14.263Z,100886.21
2023-04-10T13:05:42.504Z,100891.86
2023-04-10T13:08:10.640Z,100891.02
2023-04-10T13:10:38.869Z,100890.50
2023-04-10T13:13:08.201Z,100885.33
2023-04-10T13:15:36.873Z,100875.27
2023-04-10T13:18:07.309Z,100871.23
2023-04-10T13:20:36.231Z,100865.27
2023-04-10T13:23:04.843Z,100856.38
2023-04-10T13:25:33.870Z,100845.02
2023-04-10T13:28:02.399Z,100840.71
2023-04-10T13:30:31.367Z,100840.38
2023-04-10T13:32:59.670Z,100838.79
2023-04-10T13:35:27.670Z,100837.85
2023-04-10T13:37:55.877Z,100835.68
2023-04-10T13:40:27.529Z,100833.29
2023-04-10T13:42:55.795Z,100835.58
2023-04-10T13:45:23.634Z,100832.66
2023-04-10T13:47:52.632Z,100831.70
2023-04-10T13:50:20.687Z,100830.14
2023-04-10T13:52:52.214Z,100831.18
2023-04-10T13:55:21.951Z,100833.46
2023-04-10T13:57:49.922Z,100836.64
2023-04-10T14:00:18.513Z,100838.87
2023-04-10T14:02:55.108Z,100836.84
2023-04-10T14:05:24.446Z,100830.73
2023-04-10T14:07:56.811Z,100826.72
2023-04-10T14:10:24.908Z,100825.83
2023-04-10T14:12:52.777Z,100822.44
2023-04-10T14:15:21.317Z,100820.29
2023-04-10T14:17:49.674Z,100818.70
2023-04-10T14:20:17.756Z,100819.30
2023-04-10T14:22:47.845Z,100815.58
2023-04-10T14:25:16.333Z,100813.09
2023-04-10T14:27:44.745Z,100808.73
2023-04-10T14:30:13.933Z,100805.68
2023-04-10T14:32:42.495Z,100802.29
2023-04-10T14:35:11.815Z,100802.88
2023-04-10T14:37:39.845Z,100803.25
2023-04-10T14:40:08.906Z,100802.28
2023-04-10T14:42:37.157Z,100798.05
2023-04-10T14:45:10.829Z,100800.80
2023-04-10T14:47:40.555Z,100797.05
2023-04-10T14:50:09.071Z,100794.77
2023-04-10T14:52:37.280Z,100790.44
2023-04-10T14:55:05.865Z,100789.96
2023-04-10T14:57:38.954Z,100786.66
2023-04-10T15:00:08.124Z,100789.20
2023-04-10T15:02:38.524Z,100786.08
2023-04-10T15:05:07.995Z,100785.54
2023-04-10T15:07:36.908Z,100780.92
2023-04-10T15:10:05.500Z,100786.33
2023-04-10T15:12:43.500Z,100784.95
2023-04-10T15:15:13.622Z,100779.66
2023-04-10T15:17:41.597Z,100779.12
2023-04-10T15:20:12.128Z,100775.43
2023-04-10T15:22:42.562Z,100772.41
2023-04-10T15:25:13.639Z,100767.08
2023-04-10T15:27:42.960Z,100766.48
2023-04-10T15:30:12.439Z,100764.42
2023-04-10T15:32:44.758Z,100763.71
2023-04-10T15:35:12.692Z,100763.30
2023-04-10T15:37:40.826Z,100757.25
2023-04-10T15:40:10.580Z,100756.40
2023-04-10T15:42:38.560Z,100757.26
2023-04-10T15:45:06.958Z,100757.42
2023-04-10T15:47:35.455Z,100757.19
2023-04-10T15:50:05.625Z,100754.07
2023-04-10T15:52:34.288Z,100748.80
2023-04-10T15:55:02.629Z,100751.67
2023-04-10T15:57:32.838Z,100747.85
2023-04-10T16:00:02.321Z,100745.55
2023-04-10T16:02:33.526Z,100741.56
2023-04-10T16:05:05.038Z,100738.41
2023-04-10T16:07:36.421Z,100739.10
2023-04-10T16:10:05.981Z,100735.44
2023-04-10T16:12:38.925Z,100738.66
2023-04-10T16:15:08.451Z,100740.79
2023-04-10T16:17:36.492Z,100737.98
2023-04-10T16:20:06.713Z,100736.15
2023-04-10T16:22:36.796Z,100737.15
2023-04-10T16:25:06.022Z,100740.17
2023-04-10T16:27:34.340Z,100742.19
2023-04-10T16:30:02.760Z,100741.83
2023-04-10T16:32:34.422Z,100738.29
2023-04-10T16:35:02.470Z,100739.68
2023-04-10T16:37:31.356Z,100743.59
2023-04-10T16:40:05.646Z,100742.12
2023-04-10T16:42:35.472Z,100740.60
2023-04-10T16:45:03.593Z,100737.15
2023-04-10T16:47:32.433Z,100740.05
2023-04-10T16:50:00.491Z,100738.63
2023-04-10T16:52:32.690Z,100741.42
2023-04-10T16:55:00.729Z,100740.27
2023-04-10T16:57:29.712Z,100739.46
2023-04-10T16:59:59.226Z,100740.78
2023-04-10T17:02:28.463Z,100741.53
2023-04-10T17:04:56.729Z,100742.33
2023-04-10T17:07:30.348Z,100741.59
2023-04-10T17:09:59.272Z,100744.59
2023-04-10T17:12:27.316Z,100746.25
2023-04-10T17:15:03.087Z,100748.07
2023-04-10T17:17:34.246Z,100747.72
2023-04-10T17:20:02.585Z,100746.16
2023-04-10T17:22:31.474Z,100749.63
2023-04-10T17:25:00.345Z,100749.31
2023-04-10T17:27:28.644Z,100751.27
2023-04-10T17:29:59.674Z,100751.28
2023-04-10T17:32:29.572Z,100753.18
2023-04-10T17:34:57.644Z,100753.30
2023-04-10T17:37:26.195Z,100754.08
2023-04-10T17:39:54.658Z,100762.45
2023-04-10T17:42:24.480Z,100761.05
2023-04-10T17:44:53.027Z,100762.23
2023-04-10T17:47:21.059Z,100761.84
2023-04-10T17:49:49.639Z,100765.10
2023-04-10T17:52:17.713Z,100769.52
2023-04-10T17:54:49.018Z,100767.38
2023-04-10T17:57:16.830Z,100769.27
2023-04-10T17:59:48.927Z,100767.56
2023-04-10T18:02:18.280Z,100770.40
2023-04-10T18:04:46.288Z,100771.45
2023-04-10T18:07:20.676Z,100770.02
2023-04-10T18:09:48.732Z,100775.91
2023-04-10T18:12:16.615Z,100772.95
2023-04-10T18:14:48.613Z,100769.78
2023-04-10T18:17:17.161Z,100773.09
2023-04-10T18:19:45.580Z,100773.11
2023-04-10T18:22:14.890Z,100774.54
2023-04-10T18:24:46.917Z,100772.73
2023-04-10T18:27:18.146Z,100775.77
2023-04-10T18:29:46.758Z,100780.13
2023-04-10T18:32:14.704Z,100782.80
2023-04-10T18:34:46.105Z,100782.96
2023-04-10T18:37:14.221Z,100778.59
2023-04-10T18:39:42.063Z,100778.55
2023-04-10T18:42:13.371Z,100780.23
2023-04-10T18:44:41.311Z,100783.14
2023-04-10T18:47:11.477Z,100783.45
2023-04-10T18:49:39.601Z,100779.45
2023-04-10T18:52:13.193Z,100782.85
2023-04-10T18:54:44.472Z,100778.85
2023-04-10T18:57:13.474Z,100776.77
2023-04-10T18:59:46.434Z,100781.55
2023-04-10T19:02:14.530Z,100780.73
2023-04-10T19:04:42.685Z,100777.05
2023-04-10T19:07:11.230Z,100778.76
2023-04-10T19:09:39.339Z,100777.84
2023-04-10T19:12:07.347Z,100780.66
2023-04-10T19:14:38.299Z,100780.13
2023-04-10T19:17:07.359Z,100782.88
2023-04-10T19:19:35.226Z,100785.12
2023-04-10T19:22:07.950Z,100778.96
2023-04-10T19:24:36.042Z,100773.50
2023-04-10T19:27:04.014Z,100772.52
2023-04-10T19:29:32.108Z,100775.52
2023-04-10T19:32:58.161Z,100772.52
2023-04-10T19:35:26.455Z,100772.11
2023-04-10T19:37:57.972Z,100769.52
2023-04-10T19:40:32.873Z,100772.58
2023-04-10T19:43:01.978Z,100767.60
2023-04-10T19:45:32.471Z,100776.08
2023-04-10T19:48:01.136Z,100773.13
2023-04-10T19:50:30.651Z,100776.27
2023-04-10T19:53:00.024Z,100774.11
2023-04-10T19:55:27.994Z,100772.28
2023-04-10T19:57:55.978Z,100771.52
2023-04-10T20:00:27.361Z,100768.89
2023-04-10T20:03:08.490Z,100769.61
2023-04-10T20:05:36.571Z,100767.83
2023-04-10T20:08:05.681Z,100762.10
2023-04-10T20:10:35.685Z,100767.13
2023-04-10T20:13:03.807Z,100763.27
2023-04-10T20:15:34.038Z,100763.71
2023-04-10T20:18:02.973Z,100761.19
2023-04-10T20:20:31.027Z,100763.05
2023-04-10T20:23:03.668Z,100758.42
2023-04-10T20:25:32.200Z,100756.58
2023-04-10T20:28:00.220Z,100750.65
2023-04-10T20:30:37.998Z,100751.89
2023-04-10T20:33:06.043Z,100754.10
2023-04-10T20:35:34.242Z,100753.87
2023-04-10T20:38:02.132Z,100753.39
2023-04-10T20:40:30.510Z,100756.02
2023-04-10T20:43:02.251Z,100750.35
2023-04-10T20:45:31.247Z,100748.46
2023-04-10T20:47:59.925Z,100748.54
2023-04-10T20:50:28.555Z,100745.96
2023-04-10T20:52:56.495Z,100743.79
2023-04-10T20:55:24.369Z,100744.13
2023-04-10T20:57:53.265Z,100738.66
2023-04-10T21:00:21.266Z,100735.27
2023-04-10T21:02:49.591Z,100738.46
2023-04-10T21:05:18.047Z,100740.64
2023-04-10T21:07:45.957Z,100741.48
2023-04-10T21:10:14.014Z,100740.66
2023-04-10T21:12:42.518Z,100739.16
2023-04-10T21:15:11.018Z,100737.48
2023-04-10T21:17:39.332Z,100740.52
2023-04-10T21:20:07.989Z,100744.63
2023-04-10T21:22:38.342Z,100743.39
2023-04-10T21:25:06.795Z,100743.80
2023-04-10T21:27:38.700Z,100737.80
2023-04-10T21:30:07.882Z,100732.39
2023-04-10T21:32:36.630Z,100728.57
2023-04-10T21:35:05.701Z,100727.09
2023-04-10T21:37:33.911Z,100729.13
2023-04-10T21:40:02.245Z,100728.55
2023-04-10T21:42:30.494Z,100729.61
2023-04-10T21:44:58.394Z,100733.40
2023-04-10T21:47:26.224Z,100731.59
2023-04-10T21:49:54.024Z,100734.95
2023-04-10T21:52:28.419Z,100730.19
2023-04-10T21:54:57.020Z,100730.22
2023-04-10T21:57:25.000Z,100729.48
2023-04-10T21:59:53.148Z,100723.98
2023-04-10T22:02:21.066Z,100725.73
2023-04-10T22:04:54.250Z,100729.00
2023-04-10T22:07:22.828Z,100728.55
2023-04-10T22:09:51.165Z,100726.88
2023-04-10T22:12:19.099Z,100728.23
2023-04-10T22:14:56.556Z,100727.48
2023-04-10T22:17:24.629Z,100725.85
2023-04-10T22:19:52.703Z,100719.90
2023-04-10T22:22:21.231Z,100719.77
2023-04-10T22:24:49.249Z,100715.63
2023-04-10T22:27:23.371Z,100713.01
2023-04-10T22:30:00.241Z,100712.95
2023-04-10T22:32:32.721Z,100708.48
2023-04-10T22:35:02.816Z,100708.48
2023-04-10T22:37:31.345Z,100707.83
2023-04-10T22:40:00.711Z,100708.09
2023-04-10T22:42:31.173Z,100709.48
2023-04-10T22:44:59.868Z,100702.31
2023-04-10T22:47:27.781Z,100700.66
2023-04-10T22:49:55.781Z,100699.70
2023-04-10T22:52:27.206Z,100700.55
2023-04-10T22:54:55.236Z,100696.42
2023-04-10T22:57:23.027Z,100695.39
2023-04-10T22:59:52.031Z,100691.59
2023-04-10T23:02:20.109Z,100691.78
2023-04-10T23:04:48.308Z,100685.11
2023-04-10T23:07:16.505Z,100682.64
2023-04-10T23:09:44.440Z,100676.55
2023-04-10T23:12:17.714Z,100675.37
2023-04-10T23:14:46.807Z,100673.52
2023-04-10T23:17:14.680Z,100675.55
2023-04-10T23:19:46.167Z,100672.64
2023-04-10T23:22:14.204Z,100675.74
2023-04-10T23:24:42.064Z,100672.06
2023-04-10T23:27:13.312Z,100670.02
2023-04-10T23:29:41.794Z,100667.42
2023-04-10T23:32:09.781Z,100665.83
2023-04-10T23:34:38.907Z,100664.27
2023-04-10T23:37:06.852Z,100664.63
2023-04-10T23:39:34.896Z,100662.26
2023-04-10T23:42:04.092Z,100656.51
2023-04-10T23:44:32.319Z,100654.08
2023-04-10T23:47:00.221Z,100647.88
2023-04-10T23:49:28.401Z,100650.16
2023-04-10T23:51:56.279Z,100646.41
2023-04-10T23:54:32.540Z,100641.16
2023-04-10T23:57:00.560Z,100639.15
2023-04-10T23:59:28.784Z,100637.21
